East Sutton Ridge, Vermont
Current Conditions -  °F | °C
As of 7:15 PM on Thursday 18 Dec 2014 (Local Time) from KCDA Reporting Station
Unknown Precip Unknown Precip  
Wind Chill: 18°   Ceiling: 1200
Heat Index: 29°   Visibility: 7mi
Dew Point: 25°   Wind: 13mph
Humidity: 85%   Direction: 250°WSW
Pressure: 29.83"   Gusts: 20mph
Location:  44.6632°N, 72.0391°W
Report Text: KCDA 190015Z AUTO 25011G17KT 7SM UP OVC012 M02/M04 A2983 RMK AO2 T10191041
Loading
Personal Weather Stations






























Interactive Weather Map New forecast layout! Learn more

10-Day Weather Forecast

Advertisements
Track Severe Weather on mobile